sensor_id;sensor_type;location;lat;lon;timestamp;P1;durP1;ratioP1;P2;durP2;ratioP2
60354;SDS011;46198;51.464;-0.066;2023-07-13T00:01:57;5.80;;;2.20;;
60354;SDS011;46198;51.464;-0.066;2023-07-13T00:04:25;6.05;;;2.22;;
60354;SDS011;46198;51.464;-0.066;2023-07-13T00:06:59;3.47;;;1.92;;
60354;SDS011;46198;51.464;-0.066;2023-07-13T00:09:27;7.55;;;2.15;;
60354;SDS011;46198;51.464;-0.066;2023-07-13T00:11:56;5.40;;;1.98;;
60354;SDS011;46198;51.464;-0.066;2023-07-13T00:14:28;4.38;;;2.10;;
60354;SDS011;46198;51.464;-0.066;2023-07-13T00:16:58;5.30;;;2.15;;
60354;SDS011;46198;51.464;-0.066;2023-07-13T00:19:27;7.05;;;2.47;;
60354;SDS011;46198;51.464;-0.066;2023-07-13T00:21:55;6.15;;;2.15;;
60354;SDS011;46198;51.464;-0.066;2023-07-13T00:24:24;7.15;;;2.28;;
60354;SDS011;46198;51.464;-0.066;2023-07-13T00:26:54;6.90;;;2.67;;
60354;SDS011;46198;51.464;-0.066;2023-07-13T00:29:23;10.88;;;2.38;;
60354;SDS011;46198;51.464;-0.066;2023-07-13T00:31:51;8.13;;;2.13;;
60354;SDS011;46198;51.464;-0.066;2023-07-13T00:34:20;5.95;;;1.90;;
60354;SDS011;46198;51.464;-0.066;2023-07-13T00:36:50;6.00;;;2.25;;
60354;SDS011;46198;51.464;-0.066;2023-07-13T00:39:19;4.68;;;1.80;;
60354;SDS011;46198;51.464;-0.066;2023-07-13T00:41:47;7.68;;;2.20;;
60354;SDS011;46198;51.464;-0.066;2023-07-13T00:44:16;4.57;;;2.10;;
60354;SDS011;46198;51.464;-0.066;2023-07-13T00:46:46;5.63;;;2.28;;
60354;SDS011;46198;51.464;-0.066;2023-07-13T00:49:16;6.32;;;2.17;;
60354;SDS011;46198;51.464;-0.066;2023-07-13T00:51:49;4.72;;;2.10;;
60354;SDS011;46198;51.464;-0.066;2023-07-13T00:54:23;6.05;;;2.05;;
60354;SDS011;46198;51.464;-0.066;2023-07-13T00:56:53;3.95;;;1.83;;
60354;SDS011;46198;51.464;-0.066;2023-07-13T00:59:25;5.90;;;2.25;;
60354;SDS011;46198;51.464;-0.066;2023-07-13T01:01:54;5.70;;;2.08;;
60354;SDS011;46198;51.464;-0.066;2023-07-13T01:04:23;7.18;;;2.10;;
60354;SDS011;46198;51.464;-0.066;2023-07-13T01:06:53;8.02;;;3.35;;
60354;SDS011;46198;51.464;-0.066;2023-07-13T01:09:22;6.70;;;2.33;;
60354;SDS011;46198;51.464;-0.066;2023-07-13T01:11:50;7.60;;;2.30;;
60354;SDS011;46198;51.464;-0.066;2023-07-13T01:14:18;7.32;;;2.00;;
60354;SDS011;46198;51.464;-0.066;2023-07-13T01:16:47;6.57;;;2.20;;
60354;SDS011;46198;51.464;-0.066;2023-07-13T01:19:19;5.88;;;1.95;;
60354;SDS011;46198;51.464;-0.066;2023-07-13T01:22:05;3.92;;;2.35;;
60354;SDS011;46198;51.464;-0.066;2023-07-13T01:24:35;4.72;;;2.15;;
60354;SDS011;46198;51.464;-0.066;2023-07-13T01:27:04;4.10;;;2.10;;
60354;SDS011;46198;51.464;-0.066;2023-07-13T01:29:34;6.43;;;2.40;;
60354;SDS011;46198;51.464;-0.066;2023-07-13T01:36:14;6.03;;;2.55;;
60354;SDS011;46198;51.464;-0.066;2023-07-13T01:38:44;5.30;;;2.08;;
60354;SDS011;46198;51.464;-0.066;2023-07-13T01:41:12;5.53;;;2.20;;
60354;SDS011;46198;51.464;-0.066;2023-07-13T01:43:41;4.72;;;2.10;;
60354;SDS011;46198;51.464;-0.066;2023-07-13T01:46:09;7.60;;;2.30;;
60354;SDS011;46198;51.464;-0.066;2023-07-13T01:48:49;8.43;;;2.35;;
60354;SDS011;46198;51.464;-0.066;2023-07-13T01:51:18;5.03;;;2.28;;
60354;SDS011;46198;51.464;-0.066;2023-07-13T01:53:48;3.92;;;2.22;;
60354;SDS011;46198;51.464;-0.066;2023-07-13T01:56:16;6.65;;;2.47;;
60354;SDS011;46198;51.464;-0.066;2023-07-13T01:58:45;8.77;;;2.50;;
60354;SDS011;46198;51.464;-0.066;2023-07-13T02:01:13;5.60;;;2.28;;
60354;SDS011;46198;51.464;-0.066;2023-07-13T02:03:42;4.25;;;2.00;;
60354;SDS011;46198;51.464;-0.066;2023-07-13T02:06:10;5.95;;;2.25;;
60354;SDS011;46198;51.464;-0.066;2023-07-13T02:08:40;4.70;;;2.28;;
60354;SDS011;46198;51.464;-0.066;2023-07-13T02:11:10;6.00;;;2.47;;
60354;SDS011;46198;51.464;-0.066;2023-07-13T02:13:38;6.95;;;2.80;;
60354;SDS011;46198;51.464;-0.066;2023-07-13T02:16:06;3.60;;;2.05;;
60354;SDS011;46198;51.464;-0.066;2023-07-13T02:18:34;7.75;;;3.55;;
60354;SDS011;46198;51.464;-0.066;2023-07-13T02:21:03;5.40;;;2.45;;
60354;SDS011;46198;51.464;-0.066;2023-07-13T02:23:31;6.13;;;2.80;;
60354;SDS011;46198;51.464;-0.066;2023-07-13T02:26:00;6.57;;;2.17;;
60354;SDS011;46198;51.464;-0.066;2023-07-13T02:28:31;7.43;;;2.30;;
60354;SDS011;46198;51.464;-0.066;2023-07-13T02:31:09;4.88;;;2.28;;
60354;SDS011;46198;51.464;-0.066;2023-07-13T02:33:39;4.93;;;2.20;;
60354;SDS011;46198;51.464;-0.066;2023-07-13T02:36:07;4.90;;;2.50;;
60354;SDS011;46198;51.464;-0.066;2023-07-13T02:38:36;7.20;;;2.63;;
60354;SDS011;46198;51.464;-0.066;2023-07-13T02:41:04;5.15;;;2.20;;
60354;SDS011;46198;51.464;-0.066;2023-07-13T02:43:36;4.75;;;2.47;;
60354;SDS011;46198;51.464;-0.066;2023-07-13T02:46:06;6.95;;;2.92;;
60354;SDS011;46198;51.464;-0.066;2023-07-13T02:48:35;7.55;;;2.28;;
60354;SDS011;46198;51.464;-0.066;2023-07-13T02:51:05;4.63;;;2.40;;
60354;SDS011;46198;51.464;-0.066;2023-07-13T02:53:34;6.05;;;2.70;;
60354;SDS011;46198;51.464;-0.066;2023-07-13T02:56:03;5.18;;;2.03;;
60354;SDS011;46198;51.464;-0.066;2023-07-13T02:58:32;6.25;;;1.98;;
60354;SDS011;46198;51.464;-0.066;2023-07-13T03:01:07;5.70;;;2.50;;
60354;SDS011;46198;51.464;-0.066;2023-07-13T03:03:36;3.83;;;2.10;;
60354;SDS011;46198;51.464;-0.066;2023-07-13T03:06:05;4.63;;;2.05;;
60354;SDS011;46198;51.464;-0.066;2023-07-13T03:08:44;5.43;;;2.38;;
60354;SDS011;46198;51.464;-0.066;2023-07-13T03:11:13;3.60;;;2.25;;
60354;SDS011;46198;51.464;-0.066;2023-07-13T03:13:48;5.45;;;2.35;;
60354;SDS011;46198;51.464;-0.066;2023-07-13T03:16:19;8.90;;;2.88;;
60354;SDS011;46198;51.464;-0.066;2023-07-13T03:18:50;3.88;;;2.00;;
60354;SDS011;46198;51.464;-0.066;2023-07-13T03:21:18;7.10;;;2.40;;
60354;SDS011;46198;51.464;-0.066;2023-07-13T03:23:47;6.53;;;2.30;;
60354;SDS011;46198;51.464;-0.066;2023-07-13T03:26:16;7.00;;;2.42;;
60354;SDS011;46198;51.464;-0.066;2023-07-13T03:28:47;5.15;;;2.60;;
60354;SDS011;46198;51.464;-0.066;2023-07-13T03:31:24;8.20;;;2.60;;
60354;SDS011;46198;51.464;-0.066;2023-07-13T03:33:56;6.35;;;2.17;;
60354;SDS011;46198;51.464;-0.066;2023-07-13T03:36:26;7.93;;;2.33;;
60354;SDS011;46198;51.464;-0.066;2023-07-13T03:38:59;5.07;;;2.15;;
60354;SDS011;46198;51.464;-0.066;2023-07-13T03:41:39;5.85;;;2.50;;
60354;SDS011;46198;51.464;-0.066;2023-07-13T03:44:07;5.47;;;2.67;;
60354;SDS011;46198;51.464;-0.066;2023-07-13T03:46:36;4.72;;;1.98;;
60354;SDS011;46198;51.464;-0.066;2023-07-13T03:49:05;7.03;;;2.47;;
60354;SDS011;46198;51.464;-0.066;2023-07-13T03:51:34;9.20;;;2.40;;
60354;SDS011;46198;51.464;-0.066;2023-07-13T03:54:04;6.15;;;2.35;;
60354;SDS011;46198;51.464;-0.066;2023-07-13T03:56:33;6.00;;;2.58;;
60354;SDS011;46198;51.464;-0.066;2023-07-13T03:59:02;3.67;;;2.07;;
60354;SDS011;46198;51.464;-0.066;2023-07-13T04:01:31;8.25;;;2.03;;
60354;SDS011;46198;51.464;-0.066;2023-07-13T04:04:00;4.88;;;2.03;;
60354;SDS011;46198;51.464;-0.066;2023-07-13T04:06:31;8.63;;;2.28;;
60354;SDS011;46198;51.464;-0.066;2023-07-13T04:09:00;3.97;;;1.85;;
60354;SDS011;46198;51.464;-0.066;2023-07-13T04:11:32;4.75;;;2.10;;
60354;SDS011;46198;51.464;-0.066;2023-07-13T04:14:03;3.83;;;2.15;;
60354;SDS011;46198;51.464;-0.066;2023-07-13T04:16:33;4.00;;;1.95;;
60354;SDS011;46198;51.464;-0.066;2023-07-13T04:19:02;5.47;;;1.90;;
60354;SDS011;46198;51.464;-0.066;2023-07-13T04:21:31;3.72;;;2.08;;
60354;SDS011;46198;51.464;-0.066;2023-07-13T04:23:59;6.97;;;2.60;;
60354;SDS011;46198;51.464;-0.066;2023-07-13T04:26:27;4.07;;;2.22;;
60354;SDS011;46198;51.464;-0.066;2023-07-13T04:28:56;8.18;;;3.25;;
60354;SDS011;46198;51.464;-0.066;2023-07-13T04:31:24;8.90;;;2.47;;
60354;SDS011;46198;51.464;-0.066;2023-07-13T04:33:53;4.72;;;1.80;;
60354;SDS011;46198;51.464;-0.066;2023-07-13T04:36:22;5.47;;;1.83;;
60354;SDS011;46198;51.464;-0.066;2023-07-13T04:38:53;6.88;;;2.00;;
60354;SDS011;46198;51.464;-0.066;2023-07-13T04:41:21;7.25;;;2.00;;
60354;SDS011;46198;51.464;-0.066;2023-07-13T04:43:49;6.80;;;2.38;;
60354;SDS011;46198;51.464;-0.066;2023-07-13T04:46:20;3.83;;;1.83;;
60354;SDS011;46198;51.464;-0.066;2023-07-13T04:48:48;4.53;;;1.77;;
60354;SDS011;46198;51.464;-0.066;2023-07-13T04:51:19;6.03;;;3.22;;
60354;SDS011;46198;51.464;-0.066;2023-07-13T04:53:49;6.75;;;2.10;;
60354;SDS011;46198;51.464;-0.066;2023-07-13T04:56:24;3.92;;;1.90;;
60354;SDS011;46198;51.464;-0.066;2023-07-13T04:58:52;3.55;;;1.70;;
60354;SDS011;46198;51.464;-0.066;2023-07-13T05:01:21;5.78;;;2.25;;
60354;SDS011;46198;51.464;-0.066;2023-07-13T05:03:49;5.97;;;2.08;;
60354;SDS011;46198;51.464;-0.066;2023-07-13T05:06:17;5.32;;;1.98;;
60354;SDS011;46198;51.464;-0.066;2023-07-13T05:08:45;8.00;;;2.72;;
60354;SDS011;46198;51.464;-0.066;2023-07-13T05:11:15;6.60;;;2.10;;
60354;SDS011;46198;51.464;-0.066;2023-07-13T05:13:43;10.15;;;2.28;;
60354;SDS011;46198;51.464;-0.066;2023-07-13T05:16:11;4.18;;;1.83;;
60354;SDS011;46198;51.464;-0.066;2023-07-13T05:18:39;4.03;;;1.70;;
60354;SDS011;46198;51.464;-0.066;2023-07-13T05:21:09;5.45;;;2.00;;
60354;SDS011;46198;51.464;-0.066;2023-07-13T05:23:39;4.45;;;1.92;;
60354;SDS011;46198;51.464;-0.066;2023-07-13T05:26:09;3.47;;;2.10;;
60354;SDS011;46198;51.464;-0.066;2023-07-13T05:28:40;4.22;;;1.58;;
60354;SDS011;46198;51.464;-0.066;2023-07-13T05:31:09;5.57;;;2.13;;
60354;SDS011;46198;51.464;-0.066;2023-07-13T05:33:38;6.40;;;2.50;;
60354;SDS011;46198;51.464;-0.066;2023-07-13T05:36:06;5.28;;;2.08;;
60354;SDS011;46198;51.464;-0.066;2023-07-13T05:38:35;4.15;;;2.28;;
60354;SDS011;46198;51.464;-0.066;2023-07-13T05:41:03;4.28;;;2.08;;
60354;SDS011;46198;51.464;-0.066;2023-07-13T05:43:32;4.60;;;2.00;;
60354;SDS011;46198;51.464;-0.066;2023-07-13T05:46:02;4.63;;;2.22;;
60354;SDS011;46198;51.464;-0.066;2023-07-13T05:48:30;7.63;;;1.70;;
60354;SDS011;46198;51.464;-0.066;2023-07-13T05:50:59;4.78;;;2.00;;
60354;SDS011;46198;51.464;-0.066;2023-07-13T05:53:28;7.82;;;1.92;;
60354;SDS011;46198;51.464;-0.066;2023-07-13T05:55:56;3.58;;;1.83;;
60354;SDS011;46198;51.464;-0.066;2023-07-13T05:58:28;7.68;;;2.20;;
60354;SDS011;46198;51.464;-0.066;2023-07-13T06:01:02;5.05;;;2.08;;
60354;SDS011;46198;51.464;-0.066;2023-07-13T06:03:32;4.75;;;2.38;;
60354;SDS011;46198;51.464;-0.066;2023-07-13T06:06:01;4.75;;;2.20;;
60354;SDS011;46198;51.464;-0.066;2023-07-13T06:08:31;3.35;;;1.70;;
60354;SDS011;46198;51.464;-0.066;2023-07-13T06:11:04;5.22;;;1.60;;
60354;SDS011;46198;51.464;-0.066;2023-07-13T06:13:33;3.03;;;1.92;;
60354;SDS011;46198;51.464;-0.066;2023-07-13T06:16:03;7.72;;;2.00;;
60354;SDS011;46198;51.464;-0.066;2023-07-13T06:21:04;5.15;;;2.10;;
60354;SDS011;46198;51.464;-0.066;2023-07-13T06:23:34;4.68;;;1.92;;
60354;SDS011;46198;51.464;-0.066;2023-07-13T06:26:03;5.80;;;1.92;;
60354;SDS011;46198;51.464;-0.066;2023-07-13T06:28:33;5.32;;;1.77;;
60354;SDS011;46198;51.464;-0.066;2023-07-13T06:31:04;4.65;;;2.08;;
60354;SDS011;46198;51.464;-0.066;2023-07-13T06:33:34;5.40;;;1.77;;
60354;SDS011;46198;51.464;-0.066;2023-07-13T06:36:02;6.05;;;1.90;;
60354;SDS011;46198;51.464;-0.066;2023-07-13T06:38:32;8.07;;;2.33;;
60354;SDS011;46198;51.464;-0.066;2023-07-13T06:41:00;2.83;;;2.20;;
60354;SDS011;46198;51.464;-0.066;2023-07-13T06:43:28;4.00;;;1.67;;
60354;SDS011;46198;51.464;-0.066;2023-07-13T06:45:58;4.55;;;1.48;;
60354;SDS011;46198;51.464;-0.066;2023-07-13T06:48:29;7.35;;;1.80;;
60354;SDS011;46198;51.464;-0.066;2023-07-13T06:50:57;6.05;;;2.42;;
60354;SDS011;46198;51.464;-0.066;2023-07-13T06:53:25;4.25;;;2.00;;
60354;SDS011;46198;51.464;-0.066;2023-07-13T06:55:53;3.63;;;1.60;;
60354;SDS011;46198;51.464;-0.066;2023-07-13T06:58:22;6.93;;;1.70;;
60354;SDS011;46198;51.464;-0.066;2023-07-13T07:00:50;5.72;;;1.77;;
60354;SDS011;46198;51.464;-0.066;2023-07-13T07:03:20;7.05;;;2.30;;
60354;SDS011;46198;51.464;-0.066;2023-07-13T07:05:49;3.50;;;1.55;;
60354;SDS011;46198;51.464;-0.066;2023-07-13T07:08:18;5.18;;;1.75;;
60354;SDS011;46198;51.464;-0.066;2023-07-13T07:10:46;2.83;;;1.55;;
60354;SDS011;46198;51.464;-0.066;2023-07-13T07:13:18;4.78;;;1.70;;
60354;SDS011;46198;51.464;-0.066;2023-07-13T07:15:46;3.83;;;1.73;;
60354;SDS011;46198;51.464;-0.066;2023-07-13T07:18:15;4.15;;;2.03;;
60354;SDS011;46198;51.464;-0.066;2023-07-13T07:20:43;5.13;;;1.98;;
60354;SDS011;46198;51.464;-0.066;2023-07-13T07:23:13;4.90;;;1.90;;
60354;SDS011;46198;51.464;-0.066;2023-07-13T07:25:42;4.30;;;1.77;;
60354;SDS011;46198;51.464;-0.066;2023-07-13T07:28:12;3.05;;;1.80;;
60354;SDS011;46198;51.464;-0.066;2023-07-13T07:30:47;4.75;;;1.88;;
60354;SDS011;46198;51.464;-0.066;2023-07-13T07:33:19;5.07;;;1.80;;
60354;SDS011;46198;51.464;-0.066;2023-07-13T07:35:47;5.05;;;2.13;;
60354;SDS011;46198;51.464;-0.066;2023-07-13T07:38:20;3.30;;;1.70;;
60354;SDS011;46198;51.464;-0.066;2023-07-13T07:40:51;4.65;;;1.90;;
60354;SDS011;46198;51.464;-0.066;2023-07-13T07:43:22;8.93;;;1.90;;
60354;SDS011;46198;51.464;-0.066;2023-07-13T07:45:50;5.88;;;1.65;;
60354;SDS011;46198;51.464;-0.066;2023-07-13T07:48:18;3.75;;;1.60;;
60354;SDS011;46198;51.464;-0.066;2023-07-13T07:50:46;2.58;;;1.52;;
60354;SDS011;46198;51.464;-0.066;2023-07-13T07:53:14;3.97;;;1.80;;
60354;SDS011;46198;51.464;-0.066;2023-07-13T07:55:44;4.72;;;1.60;;
60354;SDS011;46198;51.464;-0.066;2023-07-13T07:58:17;4.40;;;1.70;;
60354;SDS011;46198;51.464;-0.066;2023-07-13T08:00:48;3.90;;;1.60;;
60354;SDS011;46198;51.464;-0.066;2023-07-13T08:03:19;4.70;;;1.60;;
60354;SDS011;46198;51.464;-0.066;2023-07-13T08:05:52;6.93;;;1.75;;
60354;SDS011;46198;51.464;-0.066;2023-07-13T08:08:23;5.00;;;1.40;;
60354;SDS011;46198;51.464;-0.066;2023-07-13T08:10:54;2.15;;;1.42;;
60354;SDS011;46198;51.464;-0.066;2023-07-13T08:13:26;7.53;;;1.88;;
60354;SDS011;46198;51.464;-0.066;2023-07-13T08:15:55;6.25;;;2.30;;
60354;SDS011;46198;51.464;-0.066;2023-07-13T08:18:24;7.78;;;2.80;;
60354;SDS011;46198;51.464;-0.066;2023-07-13T08:20:57;2.67;;;1.85;;
60354;SDS011;46198;51.464;-0.066;2023-07-13T08:23:25;4.35;;;2.42;;
60354;SDS011;46198;51.464;-0.066;2023-07-13T08:25:55;11.45;;;1.85;;
60354;SDS011;46198;51.464;-0.066;2023-07-13T08:28:24;4.32;;;1.90;;
60354;SDS011;46198;51.464;-0.066;2023-07-13T08:30:53;4.63;;;1.80;;
60354;SDS011;46198;51.464;-0.066;2023-07-13T08:33:22;4.50;;;1.60;;
60354;SDS011;46198;51.464;-0.066;2023-07-13T08:35:51;5.60;;;1.98;;
60354;SDS011;46198;51.464;-0.066;2023-07-13T08:38:19;7.45;;;2.28;;
60354;SDS011;46198;51.464;-0.066;2023-07-13T08:40:53;5.93;;;1.63;;
60354;SDS011;46198;51.464;-0.066;2023-07-13T08:43:25;4.90;;;1.50;;
60354;SDS011;46198;51.464;-0.066;2023-07-13T08:45:57;2.05;;;1.38;;
60354;SDS011;46198;51.464;-0.066;2023-07-13T08:48:30;5.18;;;1.70;;
60354;SDS011;46198;51.464;-0.066;2023-07-13T08:51:04;4.18;;;1.67;;
60354;SDS011;46198;51.464;-0.066;2023-07-13T08:53:55;3.60;;;1.50;;
60354;SDS011;46198;51.464;-0.066;2023-07-13T08:56:27;4.50;;;2.08;;
60354;SDS011;46198;51.464;-0.066;2023-07-13T08:58:58;3.75;;;1.65;;
60354;SDS011;46198;51.464;-0.066;2023-07-13T09:01:34;4.45;;;1.33;;
60354;SDS011;46198;51.464;-0.066;2023-07-13T09:04:21;4.32;;;1.95;;
60354;SDS011;46198;51.464;-0.066;2023-07-13T09:06:58;7.50;;;1.73;;
60354;SDS011;46198;51.464;-0.066;2023-07-13T09:09:36;4.25;;;1.77;;
60354;SDS011;46198;51.464;-0.066;2023-07-13T09:12:18;4.28;;;2.10;;
60354;SDS011;46198;51.464;-0.066;2023-07-13T09:14:54;5.00;;;1.95;;
60354;SDS011;46198;51.464;-0.066;2023-07-13T09:17:25;5.28;;;2.13;;
60354;SDS011;46198;51.464;-0.066;2023-07-13T09:19:59;3.10;;;1.85;;
60354;SDS011;46198;51.464;-0.066;2023-07-13T09:22:32;3.40;;;1.60;;
60354;SDS011;46198;51.464;-0.066;2023-07-13T09:25:06;3.88;;;1.58;;
60354;SDS011;46198;51.464;-0.066;2023-07-13T09:27:49;3.90;;;1.35;;
60354;SDS011;46198;51.464;-0.066;2023-07-13T09:30:24;3.45;;;1.83;;
60354;SDS011;46198;51.464;-0.066;2023-07-13T09:33:00;1.92;;;1.65;;
60354;SDS011;46198;51.464;-0.066;2023-07-13T09:35:29;2.90;;;1.45;;
60354;SDS011;46198;51.464;-0.066;2023-07-13T09:37:58;2.58;;;1.42;;
60354;SDS011;46198;51.464;-0.066;2023-07-13T09:40:36;2.50;;;1.50;;
60354;SDS011;46198;51.464;-0.066;2023-07-13T09:45:48;8.75;;;1.80;;
60354;SDS011;46198;51.464;-0.066;2023-07-13T09:48:17;4.95;;;1.75;;
60354;SDS011;46198;51.464;-0.066;2023-07-13T09:50:46;7.47;;;2.63;;
60354;SDS011;46198;51.464;-0.066;2023-07-13T09:53:15;9.98;;;2.13;;
60354;SDS011;46198;51.464;-0.066;2023-07-13T09:58:22;7.80;;;1.63;;
60354;SDS011;46198;51.464;-0.066;2023-07-13T10:00:56;6.65;;;2.08;;
60354;SDS011;46198;51.464;-0.066;2023-07-13T10:03:26;2.42;;;1.20;;
60354;SDS011;46198;51.464;-0.066;2023-07-13T10:06:01;3.30;;;1.50;;
60354;SDS011;46198;51.464;-0.066;2023-07-13T10:08:41;1.60;;;1.38;;
60354;SDS011;46198;51.464;-0.066;2023-07-13T10:11:12;5.85;;;1.88;;
60354;SDS011;46198;51.464;-0.066;2023-07-13T10:13:46;4.05;;;1.60;;
60354;SDS011;46198;51.464;-0.066;2023-07-13T10:16:20;3.00;;;1.33;;
60354;SDS011;46198;51.464;-0.066;2023-07-13T10:18:50;5.55;;;1.88;;
60354;SDS011;46198;51.464;-0.066;2023-07-13T10:21:26;3.67;;;1.50;;
60354;SDS011;46198;51.464;-0.066;2023-07-13T10:24:03;3.67;;;1.55;;
60354;SDS011;46198;51.464;-0.066;2023-07-13T10:26:39;2.30;;;1.30;;
60354;SDS011;46198;51.464;-0.066;2023-07-13T10:29:15;3.45;;;1.63;;
60354;SDS011;46198;51.464;-0.066;2023-07-13T10:31:51;4.07;;;1.33;;
60354;SDS011;46198;51.464;-0.066;2023-07-13T10:34:26;1.10;;;1.00;;
60354;SDS011;46198;51.464;-0.066;2023-07-13T10:37:01;2.97;;;1.40;;
60354;SDS011;46198;51.464;-0.066;2023-07-13T10:39:36;1.48;;;1.20;;
60354;SDS011;46198;51.464;-0.066;2023-07-13T10:42:10;2.45;;;1.33;;
60354;SDS011;46198;51.464;-0.066;2023-07-13T10:44:53;3.45;;;1.30;;
60354;SDS011;46198;51.464;-0.066;2023-07-13T10:47:25;3.65;;;1.50;;
60354;SDS011;46198;51.464;-0.066;2023-07-13T10:49:56;4.60;;;1.50;;
60354;SDS011;46198;51.464;-0.066;2023-07-13T10:52:43;3.33;;;1.23;;
60354;SDS011;46198;51.464;-0.066;2023-07-13T10:55:35;3.65;;;1.35;;
60354;SDS011;46198;51.464;-0.066;2023-07-13T10:58:12;4.25;;;1.45;;
60354;SDS011;46198;51.464;-0.066;2023-07-13T11:00:43;3.28;;;1.10;;
60354;SDS011;46198;51.464;-0.066;2023-07-13T11:03:27;2.85;;;1.60;;
60354;SDS011;46198;51.464;-0.066;2023-07-13T11:06:08;4.88;;;1.73;;
60354;SDS011;46198;51.464;-0.066;2023-07-13T11:08:51;1.57;;;1.00;;
60354;SDS011;46198;51.464;-0.066;2023-07-13T11:11:35;1.67;;;1.37;;
60354;SDS011;46198;51.464;-0.066;2023-07-13T11:14:09;2.50;;;1.10;;
60354;SDS011;46198;51.464;-0.066;2023-07-13T11:24:51;3.55;;;1.02;;
60354;SDS011;46198;51.464;-0.066;2023-07-13T11:27:36;2.22;;;1.25;;
60354;SDS011;46198;51.464;-0.066;2023-07-13T11:33:03;3.30;;;1.20;;
60354;SDS011;46198;51.464;-0.066;2023-07-13T11:35:41;3.13;;;2.00;;
60354;SDS011;46198;51.464;-0.066;2023-07-13T11:38:33;5.50;;;1.70;;
60354;SDS011;46198;51.464;-0.066;2023-07-13T11:41:35;3.78;;;1.90;;
60354;SDS011;46198;51.464;-0.066;2023-07-13T11:44:34;5.00;;;1.42;;
60354;SDS011;46198;51.464;-0.066;2023-07-13T11:47:08;1.65;;;1.20;;
60354;SDS011;46198;51.464;-0.066;2023-07-13T11:49:42;1.80;;;1.13;;
60354;SDS011;46198;51.464;-0.066;2023-07-13T11:52:11;1.63;;;1.08;;
60354;SDS011;46198;51.464;-0.066;2023-07-13T11:54:46;3.40;;;1.27;;
60354;SDS011;46198;51.464;-0.066;2023-07-13T11:57:21;2.28;;;1.20;;
60354;SDS011;46198;51.464;-0.066;2023-07-13T11:59:53;1.98;;;1.30;;
60354;SDS011;46198;51.464;-0.066;2023-07-13T12:02:26;2.63;;;1.10;;
60354;SDS011;46198;51.464;-0.066;2023-07-13T12:04:57;5.05;;;1.63;;
60354;SDS011;46198;51.464;-0.066;2023-07-13T12:07:28;1.42;;;1.30;;
60354;SDS011;46198;51.464;-0.066;2023-07-13T12:10:01;3.17;;;1.17;;
60354;SDS011;46198;51.464;-0.066;2023-07-13T12:12:30;2.95;;;1.20;;
60354;SDS011;46198;51.464;-0.066;2023-07-13T12:14:58;2.90;;;1.40;;
60354;SDS011;46198;51.464;-0.066;2023-07-13T12:17:28;2.90;;;1.52;;
60354;SDS011;46198;51.464;-0.066;2023-07-13T12:19:56;3.83;;;1.65;;
60354;SDS011;46198;51.464;-0.066;2023-07-13T12:22:25;3.20;;;1.40;;
60354;SDS011;46198;51.464;-0.066;2023-07-13T12:24:53;2.55;;;1.10;;
60354;SDS011;46198;51.464;-0.066;2023-07-13T12:27:26;2.83;;;1.80;;
60354;SDS011;46198;51.464;-0.066;2023-07-13T12:29:57;1.60;;;1.40;;
60354;SDS011;46198;51.464;-0.066;2023-07-13T12:32:28;3.25;;;1.45;;
60354;SDS011;46198;51.464;-0.066;2023-07-13T12:35:04;3.05;;;1.60;;
60354;SDS011;46198;51.464;-0.066;2023-07-13T12:37:41;7.07;;;1.45;;
60354;SDS011;46198;51.464;-0.066;2023-07-13T12:40:12;2.78;;;1.70;;
60354;SDS011;46198;51.464;-0.066;2023-07-13T12:42:47;1.35;;;1.25;;
60354;SDS011;46198;51.464;-0.066;2023-07-13T12:45:18;2.70;;;1.10;;
60354;SDS011;46198;51.464;-0.066;2023-07-13T12:47:50;3.88;;;1.40;;
60354;SDS011;46198;51.464;-0.066;2023-07-13T12:50:22;2.38;;;1.38;;
60354;SDS011;46198;51.464;-0.066;2023-07-13T12:52:53;3.58;;;1.00;;
60354;SDS011;46198;51.464;-0.066;2023-07-13T12:55:25;2.35;;;1.25;;
60354;SDS011;46198;51.464;-0.066;2023-07-13T12:57:54;2.40;;;0.98;;
60354;SDS011;46198;51.464;-0.066;2023-07-13T13:00:26;2.05;;;1.33;;
60354;SDS011;46198;51.464;-0.066;2023-07-13T13:03:02;1.25;;;0.85;;
60354;SDS011;46198;51.464;-0.066;2023-07-13T13:05:56;1.80;;;0.88;;
60354;SDS011;46198;51.464;-0.066;2023-07-13T13:08:29;2.35;;;1.05;;
60354;SDS011;46198;51.464;-0.066;2023-07-13T13:10:57;2.22;;;0.90;;
60354;SDS011;46198;51.464;-0.066;2023-07-13T13:13:27;2.35;;;1.02;;
60354;SDS011;46198;51.464;-0.066;2023-07-13T13:15:56;2.47;;;1.53;;
60354;SDS011;46198;51.464;-0.066;2023-07-13T13:18:30;1.88;;;1.30;;
60354;SDS011;46198;51.464;-0.066;2023-07-13T13:20:59;2.67;;;1.20;;
60354;SDS011;46198;51.464;-0.066;2023-07-13T13:23:29;4.65;;;1.33;;
60354;SDS011;46198;51.464;-0.066;2023-07-13T13:25:57;2.63;;;1.10;;
60354;SDS011;46198;51.464;-0.066;2023-07-13T13:28:25;3.72;;;1.20;;
60354;SDS011;46198;51.464;-0.066;2023-07-13T13:30:55;2.50;;;1.20;;
60354;SDS011;46198;51.464;-0.066;2023-07-13T13:33:26;1.30;;;1.20;;
60354;SDS011;46198;51.464;-0.066;2023-07-13T13:35:54;2.05;;;1.00;;
60354;SDS011;46198;51.464;-0.066;2023-07-13T13:38:24;1.40;;;1.00;;
60354;SDS011;46198;51.464;-0.066;2023-07-13T13:40:53;1.10;;;1.00;;
60354;SDS011;46198;51.464;-0.066;2023-07-13T13:43:23;2.20;;;1.05;;
60354;SDS011;46198;51.464;-0.066;2023-07-13T13:45:56;1.42;;;1.15;;
60354;SDS011;46198;51.464;-0.066;2023-07-13T13:48:29;2.53;;;1.10;;
60354;SDS011;46198;51.464;-0.066;2023-07-13T13:51:00;1.35;;;1.10;;
60354;SDS011;46198;51.464;-0.066;2023-07-13T13:53:38;3.45;;;1.30;;
60354;SDS011;46198;51.464;-0.066;2023-07-13T13:56:07;3.75;;;1.92;;
60354;SDS011;46198;51.464;-0.066;2023-07-13T13:58:36;2.50;;;1.30;;
60354;SDS011;46198;51.464;-0.066;2023-07-13T14:01:08;3.90;;;1.48;;
60354;SDS011;46198;51.464;-0.066;2023-07-13T14:03:41;6.57;;;1.52;;
60354;SDS011;46198;51.464;-0.066;2023-07-13T14:06:11;2.67;;;1.48;;
60354;SDS011;46198;51.464;-0.066;2023-07-13T14:08:40;2.70;;;1.38;;
60354;SDS011;46198;51.464;-0.066;2023-07-13T14:11:10;2.65;;;1.23;;
60354;SDS011;46198;51.464;-0.066;2023-07-13T14:13:41;4.43;;;1.60;;
60354;SDS011;46198;51.464;-0.066;2023-07-13T14:16:15;1.73;;;1.10;;
60354;SDS011;46198;51.464;-0.066;2023-07-13T14:18:45;3.42;;;1.60;;
60354;SDS011;46198;51.464;-0.066;2023-07-13T14:21:14;5.40;;;2.78;;
60354;SDS011;46198;51.464;-0.066;2023-07-13T14:23:44;6.40;;;1.50;;
60354;SDS011;46198;51.464;-0.066;2023-07-13T14:26:13;4.03;;;1.50;;
60354;SDS011;46198;51.464;-0.066;2023-07-13T14:28:44;2.85;;;1.40;;
60354;SDS011;46198;51.464;-0.066;2023-07-13T14:31:16;2.17;;;1.52;;
60354;SDS011;46198;51.464;-0.066;2023-07-13T14:33:45;3.22;;;1.80;;
60354;SDS011;46198;51.464;-0.066;2023-07-13T14:36:20;3.33;;;1.33;;
60354;SDS011;46198;51.464;-0.066;2023-07-13T14:38:53;4.95;;;2.00;;
60354;SDS011;46198;51.464;-0.066;2023-07-13T14:41:21;2.80;;;1.40;;
60354;SDS011;46198;51.464;-0.066;2023-07-13T14:43:49;2.50;;;1.60;;
60354;SDS011;46198;51.464;-0.066;2023-07-13T14:46:21;4.28;;;1.50;;
60354;SDS011;46198;51.464;-0.066;2023-07-13T14:48:59;4.63;;;1.92;;
60354;SDS011;46198;51.464;-0.066;2023-07-13T14:51:31;4.68;;;1.90;;
60354;SDS011;46198;51.464;-0.066;2023-07-13T14:54:01;2.72;;;1.92;;
60354;SDS011;46198;51.464;-0.066;2023-07-13T14:56:31;3.15;;;1.50;;
60354;SDS011;46198;51.464;-0.066;2023-07-13T14:59:00;2.97;;;1.52;;
60354;SDS011;46198;51.464;-0.066;2023-07-13T15:01:31;4.63;;;2.17;;
60354;SDS011;46198;51.464;-0.066;2023-07-13T15:03:59;3.83;;;1.67;;
60354;SDS011;46198;51.464;-0.066;2023-07-13T15:06:30;2.00;;;1.40;;
60354;SDS011;46198;51.464;-0.066;2023-07-13T15:08:59;4.65;;;2.03;;
60354;SDS011;46198;51.464;-0.066;2023-07-13T15:11:30;5.53;;;1.80;;
60354;SDS011;46198;51.464;-0.066;2023-07-13T15:13:59;7.05;;;2.00;;
60354;SDS011;46198;51.464;-0.066;2023-07-13T15:16:33;4.40;;;2.30;;
60354;SDS011;46198;51.464;-0.066;2023-07-13T15:19:08;5.43;;;2.03;;
60354;SDS011;46198;51.464;-0.066;2023-07-13T15:22:04;3.20;;;1.77;;